Time;durP1;ratioP1;P1;durP2;ratioP2;P2;SDS_P1;SDS_P2;PMS_P1;PMS_P2;Temp;Humidity;BMP_temperature;BMP_pressure;BME280_temperature;BME280_humidity;BME280_pressure;Samples;Min_cycle;Max_cycle;Signal;HPM_P1;HPM_P2
2021/06/27 00:00:30;;;;;;;17.13;15.10;;;;;;;;;;5094004;28;20774;-71
2021/06/27 00:02:56;;;;;;;17.10;15.30;;;;;;;;;;5093600;28;20921;-74
2021/06/27 00:05:24;;;;;;;16.23;14.57;;;;;;;;;;5093761;28;20413;-71
2021/06/27 00:07:51;;;;;;;15.30;13.90;;;;;;;;;;5086348;28;20427;-75
2021/06/27 00:10:19;;;;;;;16.83;15.07;;;;;;;;;;5073145;28;20464;-74
2021/06/27 00:12:46;;;;;;;15.97;14.17;;;;;;;;;;5072958;28;20442;-76
2021/06/27 00:15:13;;;;;;;16.30;14.80;;;;;;;;;;5073410;28;20410;-72
2021/06/27 00:17:40;;;;;;;17.50;15.27;;;;;;;;;;5073088;28;20895;-72
2021/06/27 00:20:08;;;;;;;17.13;15.33;;;;;;;;;;5073396;28;20419;-75
2021/06/27 00:22:34;;;;;;;15.43;13.93;;;;;;;;;;5072301;28;20470;-73
2021/06/27 00:25:00;;;;;;;17.20;15.60;;;;;;;;;;5073080;28;20410;-74
2021/06/27 00:27:26;;;;;;;15.90;14.30;;;;;;;;;;5073190;28;20410;-74
2021/06/27 00:29:52;;;;;;;15.77;14.30;;;;;;;;;;5084279;28;20465;-74
2021/06/27 00:32:18;;;;;;;15.27;13.63;;;;;;;;;;5073246;28;20426;-73
2021/06/27 00:34:44;;;;;;;15.03;13.67;;;;;;;;;;5072552;28;20425;-75
2021/06/27 00:37:10;;;;;;;16.03;14.30;;;;;;;;;;5073113;28;20418;-74
2021/06/27 00:39:36;;;;;;;15.97;14.37;;;;;;;;;;5073555;28;20418;-74
2021/06/27 00:42:03;;;;;;;16.07;14.40;;;;;;;;;;5073029;28;20525;-75
2021/06/27 00:44:29;;;;;;;15.90;14.27;;;;;;;;;;5072603;28;20410;-74
2021/06/27 00:46:55;;;;;;;15.13;13.67;;;;;;;;;;5076749;28;20420;-74
2021/06/27 00:49:21;;;;;;;17.40;15.67;;;;;;;;;;5072784;28;20454;-73
2021/06/27 00:51:48;;;;;;;15.77;14.07;;;;;;;;;;5083234;28;20418;-75
2021/06/27 00:54:14;;;;;;;16.70;15.10;;;;;;;;;;5092974;28;20497;-73
2021/06/27 00:56:40;;;;;;;15.43;13.87;;;;;;;;;;5082436;28;20418;-74
2021/06/27 00:59:06;;;;;;;14.97;13.43;;;;;;;;;;5072708;28;20796;-74
2021/06/27 01:01:32;;;;;;;14.83;13.30;;;;;;;;;;5073333;28;20767;-76
2021/06/27 01:03:58;;;;;;;14.63;13.20;;;;;;;;;;5072415;28;20445;-74
2021/06/27 01:06:24;;;;;;;16.20;14.60;;;;;;;;;;5072795;28;20414;-74
2021/06/27 01:08:51;;;;;;;14.07;12.80;;;;;;;;;;5072119;28;20548;-76
2021/06/27 01:11:17;;;;;;;14.30;12.90;;;;;;;;;;5072846;28;20771;-75
2021/06/27 01:13:43;;;;;;;15.53;14.03;;;;;;;;;;5089562;28;20438;-75
2021/06/27 01:16:09;;;;;;;15.57;14.07;;;;;;;;;;5092979;28;20421;-76
2021/06/27 01:18:36;;;;;;;16.30;14.60;;;;;;;;;;5075243;28;20524;-74
2021/06/27 01:21:10;;;;;;;17.30;14.93;;;;;;;;;;5072552;28;20410;-75
2021/06/27 01:23:37;;;;;;;16.57;14.80;;;;;;;;;;5072526;28;20513;-72
2021/06/27 01:26:03;;;;;;;16.73;15.03;;;;;;;;;;5072762;28;20403;-74
2021/06/27 01:28:29;;;;;;;17.30;15.63;;;;;;;;;;5074355;28;20417;-73
2021/06/27 01:31:13;;;;;;;16.13;14.53;;;;;;;;;;5071387;28;20535;-76
2021/06/27 01:33:39;;;;;;;19.00;14.57;;;;;;;;;;5072417;28;20923;-76
2021/06/27 01:36:05;;;;;;;16.90;15.20;;;;;;;;;;5072563;28;20469;-74
2021/06/27 01:38:35;;;;;;;16.47;14.87;;;;;;;;;;5072363;28;20794;-72
2021/06/27 01:41:01;;;;;;;16.60;14.67;;;;;;;;;;5077975;28;20403;-71
2021/06/27 01:43:27;;;;;;;16.73;15.13;;;;;;;;;;5072176;28;20529;-74
2021/06/27 01:45:55;;;;;;;16.73;15.03;;;;;;;;;;5072394;28;20445;-75
2021/06/27 01:48:21;;;;;;;17.40;15.70;;;;;;;;;;5080032;28;20427;-74
2021/06/27 01:50:49;;;;;;;17.37;15.57;;;;;;;;;;5073937;28;20458;-71
2021/06/27 01:53:16;;;;;;;16.57;14.87;;;;;;;;;;5083398;28;20448;-74
2021/06/27 01:55:42;;;;;;;16.60;15.00;;;;;;;;;;5072352;28;20492;-74
2021/06/27 01:58:08;;;;;;;16.70;15.10;;;;;;;;;;5072301;28;20422;-74
2021/06/27 02:00:35;;;;;;;16.03;14.33;;;;;;;;;;5071999;28;20406;-73
2021/06/27 02:03:01;;;;;;;16.03;14.47;;;;;;;;;;5072075;28;20430;-71
2021/06/27 02:05:28;;;;;;;17.23;15.43;;;;;;;;;;5072136;28;20449;-71
2021/06/27 02:07:54;;;;;;;17.43;15.63;;;;;;;;;;5072399;28;20430;-74
2021/06/27 02:10:21;;;;;;;17.13;15.33;;;;;;;;;;5075934;28;20469;-74
2021/06/27 02:12:48;;;;;;;16.30;14.60;;;;;;;;;;5084499;28;20494;-71
2021/06/27 02:15:14;;;;;;;17.00;15.20;;;;;;;;;;5096095;28;20432;-72
2021/06/27 02:17:48;;;;;;;18.00;14.97;;;;;;;;;;5096288;28;20415;-74
2021/06/27 02:20:15;;;;;;;16.30;14.50;;;;;;;;;;5078902;28;20484;-71
2021/06/27 02:22:41;;;;;;;17.17;15.30;;;;;;;;;;5075893;28;20521;-74
2021/06/27 02:25:07;;;;;;;18.67;16.13;;;;;;;;;;5075652;28;20828;-76
2021/06/27 02:27:33;;;;;;;18.40;16.17;;;;;;;;;;5075359;28;20426;-77
2021/06/27 02:29:59;;;;;;;19.03;17.03;;;;;;;;;;5077168;28;20472;-75
2021/06/27 02:32:25;;;;;;;18.70;16.63;;;;;;;;;;5075433;28;20517;-74
2021/06/27 02:34:51;;;;;;;17.17;15.43;;;;;;;;;;5075063;28;20852;-75
2021/06/27 02:37:17;;;;;;;16.83;15.13;;;;;;;;;;5075708;28;20790;-74
2021/06/27 02:39:43;;;;;;;16.73;15.10;;;;;;;;;;5079784;28;20839;-73
2021/06/27 02:42:10;;;;;;;17.70;15.90;;;;;;;;;;5075745;28;20440;-73
2021/06/27 02:44:36;;;;;;;17.20;15.40;;;;;;;;;;5075501;28;20753;-73
2021/06/27 02:47:02;;;;;;;17.97;16.07;;;;;;;;;;5080740;28;20452;-72
2021/06/27 02:49:28;;;;;;;16.90;15.13;;;;;;;;;;5077031;28;20881;-73
2021/06/27 02:51:54;;;;;;;17.30;15.53;;;;;;;;;;5086555;28;20414;-74
2021/06/27 02:54:20;;;;;;;16.90;15.20;;;;;;;;;;5095376;28;20420;-75
2021/06/27 02:56:46;;;;;;;16.47;14.90;;;;;;;;;;5095531;28;20406;-76
2021/06/27 02:59:12;;;;;;;17.00;15.40;;;;;;;;;;5095037;28;20428;-71
2021/06/27 03:01:41;;;;;;;16.57;14.67;;;;;;;;;;5093983;28;20890;-75
2021/06/27 03:04:07;;;;;;;17.30;15.60;;;;;;;;;;5094905;28;20414;-72
2021/06/27 03:06:33;;;;;;;17.67;15.77;;;;;;;;;;5095399;28;20758;-76
2021/06/27 03:08:59;;;;;;;16.70;15.10;;;;;;;;;;5074920;28;20466;-72
2021/06/27 03:11:26;;;;;;;17.10;15.30;;;;;;;;;;5074898;28;20533;-75
2021/06/27 03:13:53;;;;;;;18.43;16.53;;;;;;;;;;5074314;28;20434;-71
2021/06/27 03:16:19;;;;;;;16.83;15.13;;;;;;;;;;5075144;28;20406;-76
2021/06/27 03:18:45;;;;;;;18.60;16.67;;;;;;;;;;5073903;28;20937;-72
2021/06/27 03:21:11;;;;;;;19.47;16.83;;;;;;;;;;5075166;28;20498;-71
2021/06/27 03:23:37;;;;;;;19.97;17.37;;;;;;;;;;5074479;28;20423;-76
2021/06/27 03:26:04;;;;;;;18.90;16.70;;;;;;;;;;5074480;28;20501;-72
2021/06/27 03:28:34;;;;;;;19.87;17.10;;;;;;;;;;5075792;28;20413;-74
2021/06/27 03:31:00;;;;;;;17.60;15.90;;;;;;;;;;5074525;28;20471;-73
2021/06/27 03:33:27;;;;;;;18.27;16.40;;;;;;;;;;5074159;28;20445;-75
2021/06/27 03:35:54;;;;;;;17.37;15.57;;;;;;;;;;5074209;28;20548;-74
2021/06/27 03:38:25;;;;;;;18.13;15.73;;;;;;;;;;5073874;28;20415;-75
2021/06/27 03:40:51;;;;;;;18.37;16.13;;;;;;;;;;5078713;28;20414;-73
2021/06/27 03:43:17;;;;;;;17.17;15.37;;;;;;;;;;5073837;28;20430;-72
2021/06/27 03:45:44;;;;;;;17.30;15.50;;;;;;;;;;5074831;28;20436;-74
2021/06/27 03:48:10;;;;;;;20.60;15.30;;;;;;;;;;5086483;28;20475;-75
2021/06/27 03:50:36;;;;;;;15.90;14.27;;;;;;;;;;5074013;28;20498;-75
2021/06/27 03:53:03;;;;;;;17.03;15.33;;;;;;;;;;5094114;28;20433;-73
2021/06/27 03:55:31;;;;;;;16.80;15.20;;;;;;;;;;5092648;28;20424;-74
2021/06/27 03:57:58;;;;;;;17.10;15.40;;;;;;;;;;5094023;28;20879;-74
2021/06/27 04:00:24;;;;;;;16.60;15.00;;;;;;;;;;5092577;28;20426;-72
2021/06/27 04:02:50;;;;;;;15.90;14.40;;;;;;;;;;5092546;28;20456;-72
2021/06/27 04:05:16;;;;;;;15.60;14.10;;;;;;;;;;5093852;28;20504;-72
2021/06/27 04:07:42;;;;;;;15.00;13.50;;;;;;;;;;5084481;28;20434;-74
2021/06/27 04:10:08;;;;;;;14.63;13.23;;;;;;;;;;5073343;28;20454;-71
2021/06/27 04:12:34;;;;;;;15.80;14.00;;;;;;;;;;5080939;28;20429;-72
2021/06/27 04:15:00;;;;;;;19.43;17.43;;;;;;;;;;5093670;28;20413;-72
2021/06/27 04:17:26;;;;;;;17.23;15.53;;;;;;;;;;5093944;28;20401;-76
2021/06/27 04:19:53;;;;;;;16.27;14.77;;;;;;;;;;5093615;28;20756;-75
2021/06/27 04:22:20;;;;;;;17.30;15.50;;;;;;;;;;5093422;28;20429;-72
2021/06/27 04:24:46;;;;;;;20.17;18.10;;;;;;;;;;5093444;28;20444;-72
2021/06/27 04:27:12;;;;;;;17.97;16.23;;;;;;;;;;5093507;28;20888;-75
2021/06/27 04:29:38;;;;;;;21.17;19.13;;;;;;;;;;5079260;28;20512;-74
2021/06/27 04:32:05;;;;;;;20.43;18.33;;;;;;;;;;5072353;28;20422;-72
2021/06/27 04:34:32;;;;;;;20.47;18.47;;;;;;;;;;5072758;28;20411;-74
2021/06/27 04:36:58;;;;;;;19.40;17.60;;;;;;;;;;5072984;28;20418;-75
2021/06/27 04:39:24;;;;;;;19.80;17.80;;;;;;;;;;5078268;28;20435;-73
2021/06/27 04:41:50;;;;;;;19.00;17.10;;;;;;;;;;5071506;28;20430;-73
2021/06/27 04:44:16;;;;;;;19.00;16.97;;;;;;;;;;5072755;28;20429;-73
2021/06/27 04:46:42;;;;;;;39.63;32.83;;;;;;;;;;5075289;28;20431;-73
2021/06/27 04:49:08;;;;;;;32.80;25.80;;;;;;;;;;5078367;28;20461;-74
2021/06/27 04:51:35;;;;;;;23.20;17.30;;;;;;;;;;5081346;28;20413;-72
2021/06/27 04:54:01;;;;;;;21.40;19.20;;;;;;;;;;5077744;28;20429;-73
2021/06/27 04:56:27;;;;;;;20.73;18.63;;;;;;;;;;5072877;28;20464;-77
2021/06/27 04:58:53;;;;;;;21.30;19.30;;;;;;;;;;5072747;28;20865;-74
2021/06/27 05:01:19;;;;;;;21.90;19.67;;;;;;;;;;5072976;28;20453;-74
2021/06/27 05:03:45;;;;;;;22.97;20.63;;;;;;;;;;5072461;28;20822;-77
2021/06/27 05:06:11;;;;;;;22.57;20.23;;;;;;;;;;5071399;28;20428;-72
2021/06/27 05:08:37;;;;;;;22.30;20.00;;;;;;;;;;5072219;28;20927;-72
2021/06/27 05:11:04;;;;;;;21.27;19.07;;;;;;;;;;5072565;28;20458;-71
2021/06/27 05:13:30;;;;;;;20.47;18.37;;;;;;;;;;5072500;28;20433;-73
2021/06/27 05:15:56;;;;;;;22.07;19.80;;;;;;;;;;5072635;28;20876;-75
2021/06/27 05:18:23;;;;;;;23.50;21.10;;;;;;;;;;5071022;28;20431;-74
2021/06/27 05:20:49;;;;;;;18.33;16.60;;;;;;;;;;5072359;28;20430;-76
2021/06/27 05:23:15;;;;;;;18.67;16.87;;;;;;;;;;5072252;28;20436;-74
2021/06/27 05:25:41;;;;;;;22.97;20.63;;;;;;;;;;5072561;28;20425;-72
2021/06/27 05:28:07;;;;;;;20.90;18.70;;;;;;;;;;5074502;28;20469;-74
2021/06/27 05:30:33;;;;;;;20.03;17.93;;;;;;;;;;5072677;28;20461;-73
2021/06/27 05:33:00;;;;;;;19.87;17.97;;;;;;;;;;5071864;28;20519;-73
2021/06/27 05:35:26;;;;;;;18.57;16.77;;;;;;;;;;5072508;28;20493;-74
2021/06/27 05:37:52;;;;;;;21.03;18.80;;;;;;;;;;5072203;28;20414;-75
2021/06/27 05:40:18;;;;;;;20.00;18.17;;;;;;;;;;5078111;28;20738;-75
2021/06/27 05:42:45;;;;;;;19.50;17.57;;;;;;;;;;5073874;28;20438;-75
2021/06/27 05:45:11;;;;;;;19.70;17.80;;;;;;;;;;5076623;28;20440;-74
2021/06/27 05:47:37;;;;;;;19.43;17.57;;;;;;;;;;5084185;28;20839;-76
2021/06/27 05:50:04;;;;;;;19.17;17.10;;;;;;;;;;5076327;28;20727;-71
2021/06/27 05:52:30;;;;;;;18.63;16.93;;;;;;;;;;5092349;28;20520;-75
2021/06/27 05:54:56;;;;;;;17.20;15.60;;;;;;;;;;5092942;28;20498;-71
2021/06/27 05:57:22;;;;;;;19.10;16.70;;;;;;;;;;5076303;28;20417;-73
2021/06/27 05:59:48;;;;;;;17.67;16.07;;;;;;;;;;5076013;28;20446;-72
2021/06/27 06:02:14;;;;;;;16.80;15.20;;;;;;;;;;5075950;28;20448;-73
2021/06/27 06:04:40;;;;;;;18.00;16.20;;;;;;;;;;5076044;28;20850;-73
2021/06/27 06:07:06;;;;;;;18.50;16.60;;;;;;;;;;5075647;28;20440;-74
2021/06/27 06:09:32;;;;;;;16.60;15.00;;;;;;;;;;5074379;28;20898;-72
2021/06/27 06:11:59;;;;;;;16.13;14.53;;;;;;;;;;5078040;28;20418;-73
2021/06/27 06:14:25;;;;;;;14.87;13.37;;;;;;;;;;5095931;28;20421;-74
2021/06/27 06:16:51;;;;;;;15.20;13.70;;;;;;;;;;5080007;28;20898;-76
2021/06/27 06:19:19;;;;;;;15.00;13.60;;;;;;;;;;5075465;28;20752;-75
2021/06/27 06:21:49;;;;;;;16.37;14.77;;;;;;;;;;5075823;28;20429;-73
2021/06/27 06:24:16;;;;;;;13.60;12.30;;;;;;;;;;5075713;28;20415;-75
2021/06/27 06:26:42;;;;;;;14.00;12.77;;;;;;;;;;5075557;28;20947;-76
2021/06/27 06:29:08;;;;;;;14.90;13.10;;;;;;;;;;5077339;28;20476;-73
2021/06/27 06:31:34;;;;;;;13.40;12.00;;;;;;;;;;5075672;28;20407;-76
2021/06/27 06:34:00;;;;;;;13.00;11.70;;;;;;;;;;5075345;28;20438;-76
2021/06/27 06:36:26;;;;;;;14.70;11.77;;;;;;;;;;5075543;28;20464;-76
2021/06/27 06:38:52;;;;;;;13.83;12.30;;;;;;;;;;5077312;28;20799;-74
2021/06/27 06:41:18;;;;;;;13.93;12.40;;;;;;;;;;5078878;28;20417;-72
2021/06/27 06:43:44;;;;;;;14.77;13.37;;;;;;;;;;5085422;28;20432;-71
2021/06/27 06:46:10;;;;;;;14.80;13.50;;;;;;;;;;5078640;28;20407;-74
2021/06/27 06:48:36;;;;;;;15.80;14.30;;;;;;;;;;5082995;28;20410;-74
2021/06/27 06:51:02;;;;;;;15.37;13.97;;;;;;;;;;5079162;28;20461;-73
2021/06/27 06:53:28;;;;;;;14.43;13.03;;;;;;;;;;5087168;28;20435;-71
2021/06/27 06:55:57;;;;;;;15.70;14.30;;;;;;;;;;5074512;28;20922;-76
2021/06/27 06:58:27;;;;;;;15.90;14.40;;;;;;;;;;5074806;28;20501;-72
2021/06/27 07:00:53;;;;;;;14.60;13.20;;;;;;;;;;5074894;28;20418;-75
2021/06/27 07:03:19;;;;;;;15.20;13.77;;;;;;;;;;5074809;28;20439;-74
2021/06/27 07:05:45;;;;;;;15.77;14.17;;;;;;;;;;5074639;28;20783;-75
2021/06/27 07:08:11;;;;;;;14.57;13.07;;;;;;;;;;5074530;28;20865;-72
2021/06/27 07:10:37;;;;;;;14.80;13.40;;;;;;;;;;5074704;28;20469;-75
2021/06/27 07:13:04;;;;;;;14.60;13.30;;;;;;;;;;5086086;28;20794;-77
2021/06/27 07:15:30;;;;;;;14.20;12.70;;;;;;;;;;5089813;28;20694;-74
2021/06/27 07:17:56;;;;;;;14.97;13.47;;;;;;;;;;5074417;28;20887;-73
2021/06/27 07:20:22;;;;;;;14.67;13.27;;;;;;;;;;5074770;28;20422;-75
2021/06/27 07:22:48;;;;;;;15.33;13.93;;;;;;;;;;5074530;28;20442;-74
2021/06/27 07:25:14;;;;;;;14.90;13.40;;;;;;;;;;5074610;28;20827;-75
2021/06/27 07:27:40;;;;;;;14.57;13.20;;;;;;;;;;5074214;28;20460;-75
2021/06/27 07:30:07;;;;;;;13.80;12.43;;;;;;;;;;5075844;28;20454;-78
2021/06/27 07:32:33;;;;;;;15.10;13.70;;;;;;;;;;5074508;28;20430;-76
2021/06/27 07:34:59;;;;;;;15.23;13.73;;;;;;;;;;5074291;28;20741;-73
2021/06/27 07:37:25;;;;;;;13.33;12.13;;;;;;;;;;5074417;28;20421;-75
2021/06/27 07:39:51;;;;;;;12.20;11.10;;;;;;;;;;5078912;28;20432;-74
2021/06/27 07:42:17;;;;;;;11.13;10.03;;;;;;;;;;5074049;28;20856;-73
2021/06/27 07:44:43;;;;;;;10.10;9.30;;;;;;;;;;5074035;28;20891;-73
2021/06/27 07:47:09;;;;;;;9.90;9.10;;;;;;;;;;5080259;28;20429;-74
2021/06/27 07:49:35;;;;;;;9.50;8.70;;;;;;;;;;5075291;28;20454;-72
2021/06/27 07:52:01;;;;;;;10.30;9.30;;;;;;;;;;5085724;28;20425;-73
2021/06/27 07:54:27;;;;;;;10.60;9.67;;;;;;;;;;5093817;28;20501;-75
2021/06/27 07:56:53;;;;;;;10.30;9.40;;;;;;;;;;5094235;28;20433;-74
2021/06/27 07:59:19;;;;;;;11.60;10.60;;;;;;;;;;5093713;28;20414;-73
2021/06/27 08:01:45;;;;;;;13.27;11.97;;;;;;;;;;5094097;28;20409;-77
2021/06/27 08:04:11;;;;;;;11.50;10.50;;;;;;;;;;5092077;28;20800;-74
2021/06/27 08:06:37;;;;;;;10.90;9.90;;;;;;;;;;5093754;28;20410;-74
2021/06/27 08:09:03;;;;;;;10.30;9.30;;;;;;;;;;5073241;28;20419;-71
2021/06/27 08:11:29;;;;;;;10.60;9.60;;;;;;;;;;5073661;28;20414;-74
2021/06/27 08:13:55;;;;;;;10.67;9.70;;;;;;;;;;5092022;28;20552;-76
2021/06/27 08:16:21;;;;;;;11.07;10.07;;;;;;;;;;5094102;28;20723;-74
2021/06/27 08:18:48;;;;;;;11.70;10.70;;;;;;;;;;5093591;28;20414;-73
2021/06/27 08:21:14;;;;;;;12.53;11.43;;;;;;;;;;5093841;28;20508;-76
2021/06/27 08:23:40;;;;;;;12.80;11.70;;;;;;;;;;5081303;28;20509;-73
2021/06/27 08:26:06;;;;;;;12.97;11.67;;;;;;;;;;5070647;28;20415;-72
2021/06/27 08:28:32;;;;;;;12.80;11.67;;;;;;;;;;5071546;28;20732;-76
2021/06/27 08:30:58;;;;;;;12.27;11.07;;;;;;;;;;5069586;28;20457;-70
2021/06/27 08:33:24;;;;;;;14.13;12.73;;;;;;;;;;5069143;28;20479;-75
2021/06/27 08:35:50;;;;;;;14.57;13.27;;;;;;;;;;5069341;28;20411;-76
2021/06/27 08:38:17;;;;;;;13.70;12.40;;;;;;;;;;5067483;28;20422;-75
2021/06/27 08:40:43;;;;;;;14.30;13.07;;;;;;;;;;5085916;28;20496;-72
2021/06/27 08:43:10;;;;;;;14.50;13.20;;;;;;;;;;5070166;28;20468;-75
2021/06/27 08:45:48;;;;;;;13.17;11.97;;;;;;;;;;5069497;28;20524;-75
2021/06/27 08:48:16;;;;;;;13.17;12.00;;;;;;;;;;5076896;28;20414;-73
2021/06/27 08:50:42;;;;;;;13.57;12.27;;;;;;;;;;5070021;28;20466;-74
2021/06/27 08:53:08;;;;;;;14.40;13.10;;;;;;;;;;5089073;28;20444;-75
2021/06/27 08:55:34;;;;;;;13.53;12.27;;;;;;;;;;5089030;28;20916;-76
2021/06/27 08:58:01;;;;;;;11.63;10.50;;;;;;;;;;5089160;28;20413;-72
2021/06/27 09:00:27;;;;;;;12.20;11.10;;;;;;;;;;5086942;28;20470;-75
2021/06/27 09:02:54;;;;;;;11.17;10.27;;;;;;;;;;5068712;28;20453;-70
2021/06/27 09:05:21;;;;;;;12.30;11.10;;;;;;;;;;5068852;28;20429;-73
2021/06/27 09:07:49;;;;;;;12.47;11.37;;;;;;;;;;5068579;28;20448;-74
2021/06/27 09:10:18;;;;;;;13.50;12.33;;;;;;;;;;5068595;28;20519;-72
2021/06/27 09:12:55;;;;;;;11.80;10.80;;;;;;;;;;5069017;28;21178;-73
2021/06/27 09:15:37;;;;;;;11.27;10.17;;;;;;;;;;5068885;28;20914;-73
2021/06/27 09:18:04;;;;;;;11.83;10.63;;;;;;;;;;5080461;28;20766;-71
2021/06/27 09:20:31;;;;;;;11.30;10.40;;;;;;;;;;5088818;28;20422;-72
2021/06/27 09:22:57;;;;;;;10.83;9.93;;;;;;;;;;5088865;28;20468;-73
2021/06/27 09:25:25;;;;;;;10.90;9.97;;;;;;;;;;5089151;28;20409;-71
2021/06/27 09:28:05;;;;;;;10.87;9.97;;;;;;;;;;5088704;28;20929;-72
2021/06/27 09:30:33;;;;;;;10.40;9.50;;;;;;;;;;5068571;28;20966;-74
2021/06/27 09:33:03;;;;;;;11.43;10.43;;;;;;;;;;5068339;28;20982;-74
2021/06/27 09:35:37;;;;;;;10.60;9.70;;;;;;;;;;5068686;28;20950;-73
2021/06/27 09:38:22;;;;;;;11.00;10.10;;;;;;;;;;5068364;28;20425;-73
2021/06/27 09:40:54;;;;;;;11.73;10.73;;;;;;;;;;5073278;28;20799;-74
2021/06/27 09:43:21;;;;;;;10.93;10.03;;;;;;;;;;5075969;28;20433;-73
2021/06/27 09:45:47;;;;;;;11.03;10.03;;;;;;;;;;5088813;28;20423;-74
2021/06/27 09:48:13;;;;;;;11.00;10.00;;;;;;;;;;5087155;28;20546;-71
2021/06/27 09:50:39;;;;;;;10.87;9.97;;;;;;;;;;5074443;28;20458;-75
2021/06/27 09:53:05;;;;;;;11.23;10.33;;;;;;;;;;5088575;28;20445;-73
2021/06/27 09:55:31;;;;;;;12.27;11.27;;;;;;;;;;5088604;28;20873;-77
2021/06/27 09:58:13;;;;;;;11.87;10.77;;;;;;;;;;5088443;28;20910;-72
2021/06/27 10:00:40;;;;;;;11.87;10.77;;;;;;;;;;5088456;28;20416;-74
2021/06/27 10:03:08;;;;;;;11.73;10.63;;;;;;;;;;5088470;28;20825;-77
2021/06/27 10:05:34;;;;;;;10.23;9.33;;;;;;;;;;5088490;28;20500;-75
2021/06/27 10:08:00;;;;;;;11.00;10.00;;;;;;;;;;5076680;28;20495;-72
2021/06/27 10:10:27;;;;;;;10.33;9.43;;;;;;;;;;5068985;28;20457;-76
2021/06/27 10:12:53;;;;;;;10.23;9.43;;;;;;;;;;5078549;28;20485;-72
2021/06/27 10:15:19;;;;;;;9.40;8.70;;;;;;;;;;5074105;28;20450;-75
2021/06/27 10:17:49;;;;;;;10.40;9.50;;;;;;;;;;5078137;28;20771;-75
2021/06/27 10:20:16;;;;;;;8.60;7.83;;;;;;;;;;5087203;28;20425;-73
2021/06/27 10:22:42;;;;;;;9.50;8.80;;;;;;;;;;5088497;28;20543;-75
2021/06/27 10:25:10;;;;;;;8.77;8.17;;;;;;;;;;5088259;28;20839;-70
2021/06/27 10:27:36;;;;;;;9.37;8.67;;;;;;;;;;5088245;28;20418;-76
2021/06/27 10:30:03;;;;;;;8.23;7.50;;;;;;;;;;5072225;28;20458;-73
2021/06/27 10:32:29;;;;;;;6.93;6.43;;;;;;;;;;5071723;28;20441;-69
2021/06/27 10:34:56;;;;;;;6.87;6.47;;;;;;;;;;5071415;28;20418;-76
2021/06/27 10:37:26;;;;;;;8.23;7.43;;;;;;;;;;5072144;28;20517;-73
2021/06/27 10:40:11;;;;;;;8.00;7.50;;;;;;;;;;5076445;28;20933;-75
2021/06/27 10:42:49;;;;;;;6.60;6.20;;;;;;;;;;5071455;28;20435;-74
2021/06/27 10:45:29;;;;;;;8.33;7.83;;;;;;;;;;5070176;28;20434;-73
2021/06/27 10:47:56;;;;;;;8.10;7.60;;;;;;;;;;5079077;28;20429;-74
2021/06/27 10:50:22;;;;;;;7.43;6.93;;;;;;;;;;5071171;28;21261;-72
2021/06/27 10:52:53;;;;;;;7.60;7.10;;;;;;;;;;5083097;28;20449;-74
2021/06/27 10:55:23;;;;;;;6.73;6.33;;;;;;;;;;5071379;28;20410;-76
2021/06/27 10:57:58;;;;;;;6.87;6.40;;;;;;;;;;5071265;28;20471;-76
2021/06/27 11:00:25;;;;;;;8.03;7.50;;;;;;;;;;5071064;28;20418;-77
2021/06/27 11:02:51;;;;;;;7.00;6.50;;;;;;;;;;5071198;28;20857;-73
2021/06/27 11:05:32;;;;;;;5.97;5.57;;;;;;;;;;5071114;28;20418;-73
2021/06/27 11:07:59;;;;;;;6.30;5.90;;;;;;;;;;5070952;28;20445;-72
2021/06/27 11:10:25;;;;;;;8.33;7.73;;;;;;;;;;5070726;28;20859;-74
2021/06/27 11:12:57;;;;;;;7.03;6.53;;;;;;;;;;5070710;28;20767;-75
2021/06/27 11:15:27;;;;;;;8.70;7.80;;;;;;;;;;5070843;28;20426;-76
2021/06/27 11:17:57;;;;;;;8.00;7.40;;;;;;;;;;5081706;28;20413;-74
2021/06/27 11:20:24;;;;;;;8.43;7.70;;;;;;;;;;5087607;28;20479;-75
2021/06/27 11:22:51;;;;;;;7.40;6.90;;;;;;;;;;5078909;28;20773;-71
2021/06/27 11:25:36;;;;;;;6.10;5.60;;;;;;;;;;5070715;28;20414;-74
2021/06/27 11:28:21;;;;;;;5.97;5.53;;;;;;;;;;5072152;28;20413;-74
2021/06/27 11:30:50;;;;;;;6.77;6.37;;;;;;;;;;5070572;28;20465;-74
2021/06/27 11:33:19;;;;;;;7.43;6.93;;;;;;;;;;5070384;28;20532;-75
2021/06/27 11:35:47;;;;;;;8.00;7.50;;;;;;;;;;5070212;28;20552;-71
2021/06/27 11:38:49;;;;;;;7.20;6.73;;;;;;;;;;5070348;28;20497;-74
2021/06/27 11:41:21;;;;;;;6.37;5.97;;;;;;;;;;5023692;28;20452;-75
2021/06/27 11:43:53;;;;;;;6.17;5.77;;;;;;;;;;5063455;28;20443;-74
2021/06/27 11:46:28;;;;;;;5.70;5.30;;;;;;;;;;5069897;28;20438;-76
2021/06/27 11:48:55;;;;;;;5.70;5.30;;;;;;;;;;5082346;28;20405;-73
2021/06/27 11:51:32;;;;;;;6.70;5.57;;;;;;;;;;5090132;28;20799;-74
2021/06/27 11:53:59;;;;;;;4.70;4.40;;;;;;;;;;5090249;28;20439;-73
2021/06/27 11:56:25;;;;;;;5.60;5.20;;;;;;;;;;5090116;28;20413;-74
2021/06/27 11:59:11;;;;;;;5.30;5.00;;;;;;;;;;5088392;28;20421;-74
2021/06/27 12:01:37;;;;;;;5.90;5.50;;;;;;;;;;5091355;28;20424;-75
2021/06/27 12:04:03;;;;;;;6.70;6.20;;;;;;;;;;5090214;28;20866;-69
2021/06/27 12:06:38;;;;;;;5.40;5.00;;;;;;;;;;5090383;28;20563;-74
2021/06/27 12:09:04;;;;;;;6.00;5.60;;;;;;;;;;5069814;28;20454;-77
2021/06/27 12:11:30;;;;;;;5.30;5.00;;;;;;;;;;5068718;28;20438;-73
2021/06/27 12:13:57;;;;;;;5.70;5.30;;;;;;;;;;5069560;28;21268;-76
2021/06/27 12:16:30;;;;;;;5.50;5.20;;;;;;;;;;5069616;28;20422;-73
2021/06/27 12:19:00;;;;;;;4.30;4.00;;;;;;;;;;5089055;28;20413;-74
2021/06/27 12:21:27;;;;;;;5.10;4.70;;;;;;;;;;5090083;28;20427;-73
2021/06/27 12:23:57;;;;;;;7.40;4.90;;;;;;;;;;5089681;28;20433;-72
2021/06/27 12:26:24;;;;;;;5.90;5.50;;;;;;;;;;5090124;28;20418;-74
2021/06/27 12:28:51;;;;;;;5.33;4.93;;;;;;;;;;5082357;28;20424;-76
2021/06/27 12:31:19;;;;;;;5.23;4.83;;;;;;;;;;5069502;28;20414;-74
2021/06/27 12:33:55;;;;;;;5.00;4.70;;;;;;;;;;5069448;28;20438;-74
2021/06/27 12:36:21;;;;;;;5.87;5.47;;;;;;;;;;5069132;28;20413;-76
2021/06/27 12:38:48;;;;;;;5.53;5.10;;;;;;;;;;5070453;28;20415;-73
2021/06/27 12:41:19;;;;;;;5.17;4.77;;;;;;;;;;5073375;28;20873;-74
2021/06/27 12:43:46;;;;;;;5.30;4.90;;;;;;;;;;5069043;28;20446;-74
2021/06/27 12:46:13;;;;;;;4.77;4.47;;;;;;;;;;5069086;28;20771;-72
2021/06/27 12:48:39;;;;;;;5.00;4.70;;;;;;;;;;5077231;28;20418;-74
2021/06/27 12:51:05;;;;;;;4.67;4.37;;;;;;;;;;5073166;28;20417;-73
2021/06/27 12:53:31;;;;;;;6.03;5.63;;;;;;;;;;5088703;28;21026;-71
2021/06/27 12:56:08;;;;;;;4.50;4.20;;;;;;;;;;5089323;28;20452;-73
2021/06/27 12:58:53;;;;;;;4.50;4.20;;;;;;;;;;5089047;28;20442;-73
2021/06/27 13:01:19;;;;;;;5.10;4.70;;;;;;;;;;5089174;28;20457;-75
2021/06/27 13:03:55;;;;;;;5.10;4.80;;;;;;;;;;5088864;28;20467;-72
2021/06/27 13:06:21;;;;;;;5.27;4.90;;;;;;;;;;5089177;28;20421;-73
2021/06/27 13:08:47;;;;;;;5.33;5.00;;;;;;;;;;5070571;28;20442;-74
2021/06/27 13:11:13;;;;;;;4.87;4.47;;;;;;;;;;5069141;28;20422;-75
2021/06/27 13:13:39;;;;;;;5.00;4.70;;;;;;;;;;5068514;28;20963;-71
2021/06/27 13:16:15;;;;;;;4.90;4.60;;;;;;;;;;5068854;28;20446;-72
2021/06/27 13:18:41;;;;;;;5.10;4.80;;;;;;;;;;5086126;28;20774;-71
2021/06/27 13:21:19;;;;;;;4.50;4.10;;;;;;;;;;5089123;28;20844;-75
2021/06/27 13:23:45;;;;;;;4.73;4.33;;;;;;;;;;5088968;28;20524;-73
2021/06/27 13:26:12;;;;;;;4.90;4.50;;;;;;;;;;5088935;28;20417;-70
2021/06/27 13:28:45;;;;;;;4.27;3.97;;;;;;;;;;5082942;28;20418;-73
2021/06/27 13:31:26;;;;;;;4.47;4.17;;;;;;;;;;5068707;28;20421;-72
2021/06/27 13:33:54;;;;;;;4.57;4.20;;;;;;;;;;5077107;28;20441;-74
2021/06/27 13:36:29;;;;;;;5.00;4.63;;;;;;;;;;5088693;28;20771;-71
2021/06/27 13:38:57;;;;;;;4.70;4.33;;;;;;;;;;5088582;28;20424;-74
2021/06/27 13:41:25;;;;;;;4.20;3.90;;;;;;;;;;5071695;28;20465;-71
2021/06/27 13:43:52;;;;;;;4.10;3.80;;;;;;;;;;5068365;28;20683;-71
2021/06/27 13:46:18;;;;;;;3.90;3.60;;;;;;;;;;5068469;28;20814;-70
2021/06/27 13:48:44;;;;;;;3.97;3.67;;;;;;;;;;5076899;28;20499;-71
2021/06/27 13:51:10;;;;;;;4.27;3.97;;;;;;;;;;5073215;28;20508;-73
2021/06/27 13:53:36;;;;;;;3.90;3.60;;;;;;;;;;5075477;28;20454;-73
2021/06/27 13:56:16;;;;;;;4.17;3.87;;;;;;;;;;5068573;28;20480;-73
2021/06/27 13:58:52;;;;;;;4.33;3.93;;;;;;;;;;5068037;28;20414;-73
2021/06/27 14:01:20;;;;;;;4.30;3.90;;;;;;;;;;5068427;28;21001;-71
2021/06/27 14:03:46;;;;;;;3.77;3.30;;;;;;;;;;5069552;28;20442;-73
2021/06/27 14:06:15;;;;;;;4.93;4.53;;;;;;;;;;5072372;28;21103;-74
2021/06/27 14:08:41;;;;;;;4.77;4.43;;;;;;;;;;5071732;28;20438;-74
2021/06/27 14:11:07;;;;;;;4.07;3.77;;;;;;;;;;5072310;28;20505;-72
2021/06/27 14:13:38;;;;;;;3.80;3.50;;;;;;;;;;5071954;28;20521;-72
2021/06/27 14:16:08;;;;;;;3.80;3.50;;;;;;;;;;5072291;28;20467;-72
2021/06/27 14:18:34;;;;;;;3.80;3.50;;;;;;;;;;5086942;28;20425;-73
2021/06/27 14:21:00;;;;;;;3.60;3.30;;;;;;;;;;5092303;28;20456;-70
2021/06/27 14:23:26;;;;;;;4.43;3.27;;;;;;;;;;5091924;28;20437;-76
2021/06/27 14:25:52;;;;;;;3.30;3.00;;;;;;;;;;5092342;28;20409;-72
2021/06/27 14:28:19;;;;;;;3.53;3.23;;;;;;;;;;5087945;28;20403;-75